createdAt,value
2022-12-13T00:01:31.638Z,100238.72
2022-12-13T00:04:02.011Z,100232.84
2022-12-13T00:06:30.633Z,100208.28
2022-12-13T00:09:00.351Z,100230.25
2022-12-13T00:11:28.487Z,100236.97
2022-12-13T00:13:56.772Z,100229.41
2022-12-13T00:16:26.153Z,100235.25
2022-12-13T00:18:56.733Z,100221.81
2022-12-13T00:21:27.236Z,100223.44
2022-12-13T00:23:55.258Z,100226.75
2022-12-13T00:26:26.428Z,100230.91
2022-12-13T00:28:55.014Z,100230.03
2022-12-13T00:34:13.560Z,100235.00
2022-12-13T00:36:41.351Z,100194.22
2022-12-13T00:39:12.670Z,100229.91
2022-12-13T00:41:41.979Z,100229.00
2022-12-13T00:44:11.546Z,100230.63
2022-12-13T00:46:39.924Z,100241.47
2022-12-13T00:49:07.667Z,100097.59
2022-12-13T00:51:35.666Z,100243.91
2022-12-13T00:54:03.501Z,100238.00
2022-12-13T00:56:33.220Z,100234.63
2022-12-13T00:59:02.493Z,100235.47
2022-12-13T01:01:34.214Z,100242.13
2022-12-13T01:04:04.171Z,100232.00
2022-12-13T01:06:36.666Z,100235.34
2022-12-13T01:09:06.322Z,100234.44
2022-12-13T01:11:34.162Z,100233.56
2022-12-13T01:14:03.440Z,100229.28
2022-12-13T01:16:31.302Z,100236.84
2022-12-13T01:18:59.152Z,100230.06
2022-12-13T01:21:26.926Z,100194.44
2022-12-13T01:24:01.804Z,100219.06
2022-12-13T01:26:29.638Z,100226.53
2022-12-13T01:28:57.401Z,100233.19
2022-12-13T01:31:26.971Z,100232.31
2022-12-13T01:33:54.719Z,100228.09
2022-12-13T01:36:27.963Z,100235.63
2022-12-13T01:38:58.515Z,100235.59
2022-12-13T01:41:29.197Z,100233.03
2022-12-13T01:44:03.010Z,100228.00
2022-12-13T01:46:33.855Z,100232.16
2022-12-13T01:49:06.309Z,100236.31
2022-12-13T01:51:53.059Z,100230.41
2022-12-13T01:54:33.678Z,100228.66
2022-12-13T01:57:05.307Z,100206.53
2022-12-13T01:59:34.478Z,100223.56
2022-12-13T02:02:04.706Z,100203.97
2022-12-13T02:04:43.763Z,100192.03
2022-12-13T02:07:14.121Z,100221.81
2022-12-13T02:09:56.393Z,100220.91
2022-12-13T02:12:29.539Z,100170.69
2022-12-13T02:15:00.516Z,100230.00
2022-12-13T02:17:44.499Z,100136.56
2022-12-13T02:20:47.057Z,100224.91
2022-12-13T02:23:47.906Z,100226.50
2022-12-13T02:26:36.463Z,100208.59
2022-12-13T02:29:31.077Z,100084.59
2022-12-13T02:32:06.346Z,100206.84
2022-12-13T02:34:39.673Z,100186.50
2022-12-13T02:37:17.900Z,100216.53
2022-12-13T02:39:52.203Z,100177.78
2022-12-13T02:42:25.089Z,100235.22
2022-12-13T02:44:58.178Z,100229.66
2022-12-13T02:47:28.795Z,100004.22
2022-12-13T02:49:59.760Z,100214.94
2022-12-13T02:52:30.088Z,100174.47
2022-12-13T02:54:58.929Z,100231.47
2022-12-13T02:57:31.538Z,100224.19
2022-12-13T03:00:02.909Z,100229.44
2022-12-13T03:02:43.634Z,100183.09
2022-12-13T03:05:39.353Z,100119.81
2022-12-13T03:08:20.451Z,100180.22
2022-12-13T03:10:57.699Z,100182.13
2022-12-13T03:13:38.639Z,100188.31
2022-12-13T03:16:12.769Z,100150.28
2022-12-13T03:18:42.912Z,100175.06
2022-12-13T03:21:10.994Z,100217.44
2022-12-13T03:23:39.418Z,100192.00
2022-12-13T03:26:11.275Z,100136.16
2022-12-13T03:28:39.522Z,100213.50
2022-12-13T03:31:08.559Z,100181.34
2022-12-13T03:33:36.486Z,100211.09
2022-12-13T03:36:07.969Z,100192.44
2022-12-13T03:38:36.531Z,100192.66
2022-12-13T03:41:08.157Z,100191.81
2022-12-13T03:43:35.985Z,100151.22
2022-12-13T03:46:03.877Z,100177.50
2022-12-13T03:48:31.752Z,100138.59
2022-12-13T03:50:59.529Z,100205.63
2022-12-13T03:53:34.078Z,100206.47
2022-12-13T03:56:04.069Z,100197.28
2022-12-13T03:58:36.134Z,100201.59
2022-12-13T04:01:10.326Z,100167.72
2022-12-13T04:03:38.976Z,100179.69
2022-12-13T04:06:07.936Z,100202.59
2022-12-13T04:08:38.049Z,100197.59
2022-12-13T04:11:26.734Z,100176.41
2022-12-13T04:13:54.661Z,100181.56
2022-12-13T04:16:23.749Z,100206.97
2022-12-13T04:18:51.783Z,100200.25
2022-12-13T04:21:19.585Z,100197.69
2022-12-13T04:23:48.800Z,100200.19
2022-12-13T04:26:16.555Z,100197.59
2022-12-13T04:28:47.006Z,100200.06
2022-12-13T04:31:18.696Z,100199.22
2022-12-13T04:33:46.461Z,100183.97
2022-12-13T04:36:32.292Z,100207.72
2022-12-13T04:39:02.653Z,100197.66
2022-12-13T04:41:35.976Z,100073.97
2022-12-13T04:44:05.021Z,100175.59
2022-12-13T04:46:32.833Z,100177.22
2022-12-13T04:49:00.576Z,100185.72
2022-12-13T04:51:28.805Z,100180.66
2022-12-13T04:53:56.553Z,100038.31
2022-12-13T04:56:45.606Z,100167.09
2022-12-13T04:59:14.147Z,100169.53
2022-12-13T05:01:42.032Z,100182.25
2022-12-13T05:04:09.857Z,100187.28
2022-12-13T05:06:37.587Z,100182.19
2022-12-13T05:09:05.312Z,100143.25
2022-12-13T05:11:39.336Z,100168.66
2022-12-13T05:14:15.325Z,100168.78
2022-12-13T05:16:51.869Z,100087.41
2022-12-13T05:19:19.866Z,100155.25
2022-12-13T05:21:47.632Z,100136.66
2022-12-13T05:24:15.353Z,100056.25
2022-12-13T05:26:43.555Z,100103.75
2022-12-13T05:29:11.399Z,100162.97
2022-12-13T05:31:41.048Z,100157.94
2022-12-13T05:34:08.871Z,100160.50
2022-12-13T05:36:36.626Z,100156.28
2022-12-13T05:39:04.805Z,100107.84
2022-12-13T05:41:36.448Z,100157.09
2022-12-13T05:44:05.273Z,100157.97
2022-12-13T05:46:38.321Z,100092.72
2022-12-13T05:49:10.523Z,100140.16
2022-12-13T05:51:38.258Z,100155.47
2022-12-13T05:54:06.149Z,100140.28
2022-12-13T05:56:33.891Z,100162.25
2022-12-13T05:59:01.656Z,100167.38
2022-12-13T06:01:29.715Z,100160.66
2022-12-13T06:03:57.558Z,100127.66
2022-12-13T06:06:27.433Z,100143.72
2022-12-13T06:08:55.482Z,100004.09
2022-12-13T06:11:32.249Z,100087.06
2022-12-13T06:14:00.683Z,100154.00
2022-12-13T06:16:29.231Z,100150.59
2022-12-13T06:19:03.849Z,100147.25
2022-12-13T06:21:41.457Z,100124.38
2022-12-13T06:24:14.738Z,100150.56
2022-12-13T06:26:42.666Z,100132.75
2022-12-13T06:29:13.151Z,100141.22
2022-12-13T06:34:54.039Z,100064.75
2022-12-13T06:37:26.096Z,100145.22
2022-12-13T06:39:53.840Z,100142.56
2022-12-13T06:42:22.332Z,100145.94
2022-12-13T06:44:51.770Z,100144.22
2022-12-13T06:47:31.532Z,100127.22
2022-12-13T06:50:05.568Z,100095.84
2022-12-13T06:52:35.370Z,100127.16
2022-12-13T06:55:03.218Z,100146.56
2022-12-13T06:57:33.344Z,100144.03
2022-12-13T07:00:03.431Z,100041.53
2022-12-13T07:02:32.595Z,100137.25
2022-12-13T07:05:00.514Z,100103.25
2022-12-13T07:07:28.292Z,100126.09
2022-12-13T07:09:57.445Z,100146.38
2022-12-13T07:12:25.258Z,100148.91
2022-12-13T07:14:54.930Z,100142.94
2022-12-13T07:17:32.424Z,100129.34
2022-12-13T07:20:03.578Z,100144.59
2022-12-13T07:22:34.779Z,100121.72
2022-12-13T07:25:05.307Z,100145.34
2022-12-13T07:27:33.588Z,100145.31
2022-12-13T07:30:01.487Z,99922.56
2022-12-13T07:32:29.475Z,100159.38
2022-12-13T07:34:57.283Z,100156.16
2022-12-13T07:37:29.360Z,100156.16
2022-12-13T07:40:03.777Z,100148.56
2022-12-13T07:42:34.102Z,100152.72
2022-12-13T07:45:03.029Z,100139.94
2022-12-13T07:47:31.522Z,100051.91
2022-12-13T07:49:59.699Z,100150.28
2022-12-13T07:52:29.540Z,100153.72
2022-12-13T07:54:57.250Z,100120.78
2022-12-13T07:57:25.039Z,100085.28
2022-12-13T07:59:54.143Z,100143.72
2022-12-13T08:02:22.086Z,100133.59
2022-12-13T08:04:54.721Z,100142.03
2022-12-13T08:07:23.096Z,100147.03
2022-12-13T08:09:52.934Z,99936.22
2022-12-13T08:12:22.269Z,100131.81
2022-12-13T08:14:53.138Z,100139.50
2022-12-13T08:17:23.241Z,99958.16
2022-12-13T08:19:51.135Z,99981.72
2022-12-13T08:22:23.845Z,100159.75
2022-12-13T08:24:52.459Z,100086.13
2022-12-13T08:27:20.308Z,100040.34
2022-12-13T08:29:48.179Z,100103.16
2022-12-13T08:32:15.973Z,100126.09
2022-12-13T08:34:45.432Z,100146.53
2022-12-13T08:37:13.838Z,100152.50
2022-12-13T08:39:41.895Z,100092.56
2022-12-13T08:42:17.183Z,100157.00
2022-12-13T08:44:47.846Z,100157.91
2022-12-13T08:47:24.676Z,100126.66
2022-12-13T08:50:02.336Z,100100.53
2022-12-13T08:52:41.673Z,100159.03
2022-12-13T08:55:11.100Z,100134.56
2022-12-13T08:57:40.564Z,100174.41
2022-12-13T09:00:11.516Z,100169.47
2022-12-13T09:02:39.472Z,100165.41
2022-12-13T09:05:10.030Z,100164.94
2022-12-13T09:07:39.410Z,100158.63
2022-12-13T09:10:26.553Z,100157.00
2022-12-13T09:13:01.376Z,100155.97
2022-12-13T09:15:34.536Z,100163.59
2022-12-13T09:18:05.131Z,100130.66
2022-12-13T09:20:41.312Z,100161.84
2022-12-13T09:23:13.867Z,100168.34
2022-12-13T09:25:56.179Z,100162.72
2022-12-13T09:28:35.700Z,100156.47
2022-12-13T09:31:08.060Z,100148.53
2022-12-13T09:33:41.286Z,100152.53
2022-12-13T09:36:13.541Z,100140.88
2022-12-13T09:38:41.363Z,100146.34
2022-12-13T09:41:19.592Z,100145.66
2022-12-13T09:43:51.259Z,100129.44
2022-12-13T09:46:27.374Z,100154.50
2022-12-13T09:49:04.669Z,100126.06
2022-12-13T09:51:46.016Z,100160.47
2022-12-13T09:54:21.693Z,100161.19
2022-12-13T09:56:50.937Z,100155.88
2022-12-13T09:59:22.502Z,100161.19
2022-12-13T10:01:50.284Z,100149.38
2022-12-13T10:04:18.986Z,100099.94
2022-12-13T10:06:53.110Z,100138.38
2022-12-13T10:09:21.195Z,100144.25
2022-12-13T10:11:51.153Z,100153.06
2022-12-13T10:14:24.055Z,100143.72
2022-12-13T10:16:53.812Z,100137.78
2022-12-13T10:19:29.426Z,100136.75
2022-12-13T10:22:02.849Z,100128.03
2022-12-13T10:24:48.229Z,100118.34
2022-12-13T10:27:19.511Z,100115.91
2022-12-13T10:30:01.323Z,100110.59
2022-12-13T10:32:29.435Z,100107.22
2022-12-13T10:35:20.408Z,100112.88
2022-12-13T10:37:49.572Z,100072.31
2022-12-13T10:40:32.353Z,100107.47
2022-12-13T10:43:09.713Z,100091.03
2022-12-13T10:45:37.463Z,99964.00
2022-12-13T10:48:05.969Z,100084.28
2022-12-13T10:50:34.063Z,100062.00
2022-12-13T10:53:03.617Z,100018.38
2022-12-13T10:55:34.299Z,100077.84
2022-12-13T10:58:07.221Z,100087.88
2022-12-13T11:00:39.219Z,100057.53
2022-12-13T11:03:08.280Z,100070.63
2022-12-13T11:05:38.060Z,100068.84
2022-12-13T11:08:23.397Z,100067.63
2022-12-13T11:10:58.998Z,100043.25
2022-12-13T11:13:36.803Z,100033.91
2022-12-13T11:16:16.844Z,99901.25
2022-12-13T11:18:44.771Z,100039.63
2022-12-13T11:21:14.046Z,100050.00
2022-12-13T11:23:45.933Z,99886.94
2022-12-13T11:26:24.580Z,99963.22
2022-12-13T11:29:10.085Z,99767.03
2022-12-13T11:31:49.252Z,99925.47
2022-12-13T11:34:25.591Z,100031.25
2022-12-13T11:36:59.644Z,100023.50
2022-12-13T11:39:33.740Z,100022.28
2022-12-13T11:42:10.855Z,99718.22
2022-12-13T11:44:48.287Z,100017.50
2022-12-13T11:47:24.710Z,99891.56
2022-12-13T11:49:53.567Z,100012.34
2022-12-13T11:52:26.536Z,99948.31
2022-12-13T11:55:00.601Z,100015.63
2022-12-13T11:57:44.004Z,99889.63
2022-12-13T12:00:34.357Z,99989.28
2022-12-13T12:03:16.878Z,100000.00
2022-12-13T12:05:49.570Z,99835.53
2022-12-13T12:08:33.219Z,99979.59
2022-12-13T12:11:11.878Z,99994.44
2022-12-13T12:13:51.442Z,99997.34
2022-12-13T12:16:29.651Z,99984.38
2022-12-13T12:19:01.616Z,100001.44
2022-12-13T12:22:18.435Z,100005.25
2022-12-13T12:24:54.561Z,100010.19
2022-12-13T12:27:32.612Z,99995.16
2022-12-13T12:30:22.721Z,99990.66
2022-12-13T12:32:59.919Z,99995.47
2022-12-13T12:35:56.153Z,99992.44
2022-12-13T12:38:44.364Z,99988.41
2022-12-13T12:41:31.920Z,99981.50
2022-12-13T12:44:12.332Z,99980.44
2022-12-13T12:47:08.631Z,99983.38
2022-12-13T12:50:01.057Z,99949.25
2022-12-13T12:52:40.610Z,99995.13
2022-12-13T12:55:18.312Z,99672.09
2022-12-13T12:57:55.280Z,99860.72
2022-12-13T13:00:25.975Z,99934.00
2022-12-13T13:03:01.819Z,99975.38
2022-12-13T13:05:36.570Z,99977.97
2022-12-13T13:08:13.332Z,99980.59
2022-12-13T13:10:49.692Z,99973.78
2022-12-13T13:13:36.046Z,99972.97
2022-12-13T13:16:33.921Z,99933.41
2022-12-13T13:19:02.465Z,99860.94
2022-12-13T13:21:44.720Z,99953.63
2022-12-13T13:24:24.564Z,99967.97
2022-12-13T13:26:55.677Z,99973.00
2022-12-13T13:29:34.185Z,99962.91
2022-12-13T13:32:28.320Z,99791.06
2022-12-13T13:35:53.570Z,99959.53
2022-12-13T13:38:55.327Z,99965.53
2022-12-13T13:41:55.026Z,99930.16
2022-12-13T13:44:54.954Z,99974.88
2022-12-13T13:47:44.720Z,99970.66
2022-12-13T13:50:57.293Z,99972.31
2022-12-13T13:54:00.151Z,99973.13
2022-12-13T13:56:50.315Z,99985.81
2022-12-13T13:59:56.621Z,99936.03
2022-12-13T14:02:59.217Z,99952.91
2022-12-13T14:06:04.357Z,99975.56
2022-12-13T14:08:41.401Z,99978.13
2022-12-13T14:11:25.688Z,99976.44
2022-12-13T14:14:38.481Z,99979.00
2022-12-13T14:17:53.428Z,99984.97
2022-12-13T14:20:44.860Z,99990.91
2022-12-13T14:23:22.881Z,99997.72
2022-12-13T14:26:04.946Z,99985.03
2022-12-13T14:28:42.608Z,99988.44
2022-12-13T14:31:21.904Z,99977.47
2022-12-13T14:33:52.088Z,99985.09
2022-12-13T14:36:28.937Z,99866.25
2022-12-13T14:39:04.073Z,99950.56
2022-12-13T14:41:32.281Z,99932.88
2022-12-13T14:44:15.898Z,99958.19
2022-12-13T14:46:51.906Z,99951.44
2022-12-13T14:49:20.555Z,99959.06
2022-12-13T14:52:00.239Z,99946.41
2022-12-13T14:54:33.314Z,99943.94
2022-12-13T14:57:03.042Z,99944.81
2022-12-13T14:59:31.230Z,99938.03
2022-12-13T15:02:02.436Z,99940.59
2022-12-13T15:04:32.408Z,99945.66
2022-12-13T15:07:06.342Z,99868.16
2022-12-13T15:09:38.289Z,99923.78
2022-12-13T15:12:23.807Z,99922.13
2022-12-13T15:14:59.493Z,99894.28
2022-12-13T15:17:31.105Z,99945.75
2022-12-13T15:20:24.768Z,99944.06
2022-12-13T15:23:01.262Z,99951.69
2022-12-13T15:25:34.096Z,99940.72
2022-12-13T15:28:02.113Z,99939.03
2022-12-13T15:30:32.662Z,99903.63
2022-12-13T15:33:04.616Z,99837.06
2022-12-13T15:35:33.162Z,99930.63
2022-12-13T15:38:03.607Z,99934.00
2022-12-13T15:40:31.428Z,99929.78
2022-12-13T15:42:59.502Z,99905.34
2022-12-13T15:45:37.077Z,99885.94
2022-12-13T15:48:06.352Z,99934.06
2022-12-13T15:50:41.049Z,99923.91
2022-12-13T15:53:24.127Z,99921.38
2022-12-13T15:55:52.265Z,99918.84
2022-12-13T15:58:27.632Z,99696.34
2022-12-13T16:00:55.514Z,99909.56
2022-12-13T16:03:25.685Z,99912.97
2022-12-13T16:05:55.771Z,99911.28
2022-12-13T16:08:31.622Z,99908.78
2022-12-13T16:11:00.262Z,99901.19
2022-12-13T16:13:30.675Z,99900.31
2022-12-13T16:16:09.642Z,99898.66
2022-12-13T16:18:45.727Z,99851.41
2022-12-13T16:21:14.130Z,99881.78
2022-12-13T16:23:48.622Z,99833.72
2022-12-13T16:26:23.179Z,99873.34
2022-12-13T16:28:51.383Z,99867.44
2022-12-13T16:31:22.614Z,99865.75
2022-12-13T16:33:50.632Z,99864.91
2022-12-13T16:36:18.820Z,99863.22
2022-12-13T16:38:48.150Z,99863.25
2022-12-13T16:41:16.241Z,99853.97
2022-12-13T16:43:55.964Z,99848.91
2022-12-13T16:47:11.451Z,99848.06
2022-12-13T16:49:21.103Z,99854.81
2022-12-13T16:51:49.389Z,99861.56
2022-12-13T16:54:19.982Z,99820.25
2022-12-13T16:56:48.231Z,99853.13
2022-12-13T16:59:17.553Z,99860.75
2022-12-13T17:01:46.388Z,99859.88
2022-12-13T17:04:20.194Z,99859.03
2022-12-13T17:06:49.752Z,99854.81
2022-12-13T17:09:19.101Z,99855.69
2022-12-13T17:11:47.026Z,99851.44
2022-12-13T17:14:15.275Z,99848.91
2022-12-13T17:16:43.087Z,99852.28
2022-12-13T17:19:15.380Z,99856.50
2022-12-13T17:21:43.151Z,99836.25
2022-12-13T17:24:11.054Z,99862.41
2022-12-13T17:26:40.163Z,99860.75
2022-12-13T17:29:10.844Z,99857.34
2022-12-13T17:31:41.061Z,99864.09
2022-12-13T17:34:09.008Z,99800.00
2022-12-13T17:36:36.798Z,99854.00
2022-12-13T17:39:05.036Z,99852.31
2022-12-13T17:41:33.189Z,99841.31
2022-12-13T17:44:02.247Z,99842.16
2022-12-13T17:46:30.068Z,99839.63
2022-12-13T17:48:57.786Z,99842.16
2022-12-13T17:51:25.488Z,99843.00
2022-12-13T17:53:53.811Z,99831.22
2022-12-13T17:56:21.976Z,99839.63
2022-12-13T17:58:49.702Z,99836.25
2022-12-13T18:01:21.274Z,99846.41
2022-12-13T18:03:50.143Z,99816.88
2022-12-13T18:06:18.378Z,99841.31
2022-12-13T18:08:47.009Z,99848.91
2022-12-13T18:11:32.998Z,99844.69
2022-12-13T18:14:02.821Z,99817.72
2022-12-13T18:16:37.396Z,99835.44
2022-12-13T18:19:06.861Z,99845.53
2022-12-13T18:21:36.505Z,99830.38
2022-12-13T18:24:05.195Z,99837.97
2022-12-13T18:26:32.986Z,99847.22
2022-12-13T18:29:00.766Z,99841.34
2022-12-13T18:31:28.899Z,99844.72
2022-12-13T18:33:58.053Z,99853.16
2022-12-13T18:36:27.134Z,99810.97
2022-12-13T18:38:54.951Z,99851.44
2022-12-13T18:41:24.174Z,99837.13
2022-12-13T18:43:59.212Z,99746.91
2022-12-13T18:46:29.310Z,99848.91
2022-12-13T18:48:58.837Z,99837.09
2022-12-13T18:51:26.693Z,99832.88
2022-12-13T18:53:55.986Z,99834.59
2022-12-13T18:56:24.677Z,99836.25
2022-12-13T18:58:53.316Z,99833.75
2022-12-13T19:01:22.660Z,99698.88
2022-12-13T19:03:50.601Z,99826.13
2022-12-13T19:06:21.741Z,99816.03
2022-12-13T19:08:50.346Z,99813.50
2022-12-13T19:11:18.768Z,99782.31
2022-12-13T19:13:46.854Z,99807.59
2022-12-13T19:16:20.891Z,99782.31
2022-12-13T19:18:53.332Z,99790.75
2022-12-13T19:21:27.349Z,99802.53
2022-12-13T19:24:01.348Z,99664.34
2022-12-13T19:26:30.515Z,99687.94
2022-12-13T19:29:04.275Z,99792.41
2022-12-13T19:32:03.331Z,99791.56
2022-12-13T19:34:31.432Z,99724.16
2022-12-13T19:37:06.072Z,99746.06
2022-12-13T19:39:34.443Z,99698.88
2022-12-13T19:42:02.221Z,99785.69
2022-12-13T19:44:30.038Z,99778.94
2022-12-13T19:46:58.530Z,99742.69
2022-12-13T19:49:26.468Z,99767.16
2022-12-13T19:51:55.136Z,99770.50
2022-12-13T19:54:25.815Z,99627.25
2022-12-13T19:56:54.209Z,99768.84
2022-12-13T19:59:22.209Z,99763.78
2022-12-13T20:01:50.038Z,99739.31
2022-12-13T20:04:17.822Z,99708.16
2022-12-13T20:06:45.764Z,99745.25
2022-12-13T20:09:14.077Z,99693.00
2022-12-13T20:11:43.167Z,99751.13
2022-12-13T20:14:11.031Z,99748.59
2022-12-13T20:16:38.880Z,99750.28
2022-12-13T20:19:06.708Z,99755.31
2022-12-13T20:21:34.657Z,99751.97
2022-12-13T20:24:02.969Z,99757.03
2022-12-13T20:26:31.521Z,99758.72
2022-12-13T20:29:01.141Z,99693.84
2022-12-13T20:31:30.985Z,99753.66
2022-12-13T20:34:00.575Z,99754.50
2022-12-13T20:36:29.900Z,99746.91
2022-12-13T20:38:59.550Z,99757.84
2022-12-13T20:41:29.682Z,99745.22
2022-12-13T20:43:59.124Z,99667.72
2022-12-13T20:46:29.665Z,99709.81
2022-12-13T20:48:58.551Z,99732.59
2022-12-13T20:51:28.478Z,99725.00
2022-12-13T20:53:57.489Z,99660.16
2022-12-13T20:56:35.170Z,99715.75
2022-12-13T20:59:03.516Z,99714.06
2022-12-13T21:01:34.972Z,99698.91
2022-12-13T21:04:05.520Z,99697.19
2022-12-13T21:06:35.950Z,99639.06
2022-12-13T21:09:04.993Z,99688.75
2022-12-13T21:11:35.030Z,99682.84
2022-12-13T21:14:09.885Z,99668.53
2022-12-13T21:16:43.648Z,99659.28
2022-12-13T21:19:14.140Z,99434.50
2022-12-13T21:21:41.980Z,99499.31
2022-12-13T21:24:10.427Z,99448.81
2022-12-13T21:26:38.164Z,99576.78
2022-12-13T21:29:07.598Z,99646.66
2022-12-13T21:31:36.751Z,99641.63
2022-12-13T21:34:06.836Z,99635.72
2022-12-13T21:36:36.882Z,99637.38
2022-12-13T21:39:06.551Z,99618.03
2022-12-13T21:41:34.485Z,99591.94
2022-12-13T21:44:02.293Z,99620.56
2022-12-13T21:47:10.146Z,99538.03
2022-12-13T21:49:23.174Z,99390.84
2022-12-13T21:51:51.062Z,99458.97
2022-12-13T21:54:18.984Z,99569.19
2022-12-13T21:57:04.414Z,99407.69
2022-12-13T21:59:32.388Z,99558.28
2022-12-13T22:02:14.896Z,99493.47
2022-12-13T22:04:45.819Z,99570.88
2022-12-13T22:07:15.800Z,99609.63
2022-12-13T22:09:45.393Z,99477.47
2022-12-13T22:12:20.097Z,99603.69
2022-12-13T22:14:48.589Z,99547.31
2022-12-13T22:17:16.689Z,99575.09
2022-12-13T22:19:48.747Z,99571.72
2022-12-13T22:22:17.970Z,99494.31
2022-12-13T22:24:52.728Z,99580.97
2022-12-13T22:27:25.312Z,99575.06
2022-12-13T22:29:54.196Z,99558.25
2022-12-13T22:32:22.453Z,99552.34
2022-12-13T22:34:51.701Z,99499.38
2022-12-13T22:37:19.838Z,99570.84
2022-12-13T22:39:47.626Z,99570.03
2022-12-13T22:42:15.520Z,99564.97
2022-12-13T22:44:43.460Z,99567.50
2022-12-13T22:47:11.192Z,99536.38
2022-12-13T22:49:38.898Z,99553.19
2022-12-13T22:52:09.549Z,99538.91
2022-12-13T22:54:37.396Z,99569.19
2022-12-13T22:57:05.278Z,99564.97
2022-12-13T22:59:32.998Z,99566.66
2022-12-13T23:02:03.015Z,99561.59
2022-12-13T23:04:33.672Z,99527.09
2022-12-13T23:07:01.830Z,99565.78
2022-12-13T23:09:30.878Z,99561.59
2022-12-13T23:12:16.111Z,99560.72
2022-12-13T23:14:43.961Z,99546.41
2022-12-13T23:17:11.697Z,99543.06
2022-12-13T23:19:49.066Z,99520.31
2022-12-13T23:22:19.512Z,99528.69
2022-12-13T23:24:48.600Z,99527.81
2022-12-13T23:27:16.902Z,99516.91
2022-12-13T23:29:45.130Z,99511.84
2022-12-13T23:32:13.044Z,99485.78
2022-12-13T23:34:40.715Z,99519.41
2022-12-13T23:37:08.461Z,99513.53
2022-12-13T23:39:36.324Z,99493.38
2022-12-13T23:42:05.581Z,99519.47
2022-12-13T23:44:33.545Z,99526.16
2022-12-13T23:47:01.367Z,99522.84
2022-12-13T23:49:29.409Z,99524.50
2022-12-13T23:51:57.117Z,99499.25
2022-12-13T23:54:24.841Z,99495.09
2022-12-13T23:56:52.568Z,99439.59
2022-12-13T23:59:21.626Z,99481.63
